sensor_id;sensor_type;location;lat;lon;timestamp;temperature;humidity
64012;DHT22;50211;52.768;12.124;2022-10-16T00:00:16;15.50;99.90
64012;DHT22;50211;52.768;12.124;2022-10-16T00:02:41;15.50;99.90
64012;DHT22;50211;52.768;12.124;2022-10-16T00:05:07;15.60;99.90
64012;DHT22;50211;52.768;12.124;2022-10-16T00:07:32;15.60;99.90
64012;DHT22;50211;52.768;12.124;2022-10-16T00:09:58;15.60;99.90
64012;DHT22;50211;52.768;12.124;2022-10-16T00:12:23;15.70;99.90
64012;DHT22;50211;52.768;12.124;2022-10-16T00:14:49;15.60;99.90
64012;DHT22;50211;52.768;12.124;2022-10-16T00:17:14;15.70;99.90
64012;DHT22;50211;52.768;12.124;2022-10-16T00:19:40;15.70;99.90
64012;DHT22;50211;52.768;12.124;2022-10-16T00:22:05;15.70;99.90
64012;DHT22;50211;52.768;12.124;2022-10-16T00:24:31;15.70;99.90
64012;DHT22;50211;52.768;12.124;2022-10-16T00:26:56;15.70;99.90
64012;DHT22;50211;52.768;12.124;2022-10-16T00:29:22;15.70;99.90
64012;DHT22;50211;52.768;12.124;2022-10-16T00:31:47;15.70;99.90
64012;DHT22;50211;52.768;12.124;2022-10-16T00:34:13;15.70;99.90
64012;DHT22;50211;52.768;12.124;2022-10-16T00:36:38;15.70;99.90
64012;DHT22;50211;52.768;12.124;2022-10-16T00:39:04;15.70;99.90
64012;DHT22;50211;52.768;12.124;2022-10-16T00:41:29;15.70;99.90
64012;DHT22;50211;52.768;12.124;2022-10-16T00:43:57;15.80;99.90
64012;DHT22;50211;52.768;12.124;2022-10-16T00:46:25;15.70;99.90
64012;DHT22;50211;52.768;12.124;2022-10-16T00:49:10;15.70;99.90
64012;DHT22;50211;52.768;12.124;2022-10-16T00:51:48;15.70;99.90
64012;DHT22;50211;52.768;12.124;2022-10-16T00:54:21;15.70;99.90
64012;DHT22;50211;52.768;12.124;2022-10-16T00:56:48;15.60;99.90
64012;DHT22;50211;52.768;12.124;2022-10-16T00:59:36;15.60;99.90
64012;DHT22;50211;52.768;12.124;2022-10-16T01:02:03;15.60;99.90
64012;DHT22;50211;52.768;12.124;2022-10-16T01:04:34;15.50;99.90
64012;DHT22;50211;52.768;12.124;2022-10-16T01:07:04;15.50;99.90
64012;DHT22;50211;52.768;12.124;2022-10-16T01:12:14;15.40;99.90
64012;DHT22;50211;52.768;12.124;2022-10-16T01:14:56;15.30;99.90
64012;DHT22;50211;52.768;12.124;2022-10-16T01:17:45;15.30;99.90
64012;DHT22;50211;52.768;12.124;2022-10-16T01:20:24;15.30;99.90
64012;DHT22;50211;52.768;12.124;2022-10-16T01:23:04;15.30;99.90
64012;DHT22;50211;52.768;12.124;2022-10-16T01:25:55;15.30;99.90
64012;DHT22;50211;52.768;12.124;2022-10-16T01:28:34;15.30;99.90
64012;DHT22;50211;52.768;12.124;2022-10-16T01:31:02;15.30;99.90
64012;DHT22;50211;52.768;12.124;2022-10-16T01:33:40;15.20;99.90
64012;DHT22;50211;52.768;12.124;2022-10-16T01:36:14;15.20;99.90
64012;DHT22;50211;52.768;12.124;2022-10-16T01:38:43;15.20;99.90
64012;DHT22;50211;52.768;12.124;2022-10-16T01:41:14;15.10;99.90
64012;DHT22;50211;52.768;12.124;2022-10-16T01:43:45;15.20;99.90
64012;DHT22;50211;52.768;12.124;2022-10-16T01:46:13;15.20;99.90
64012;DHT22;50211;52.768;12.124;2022-10-16T01:48:41;15.10;99.90
64012;DHT22;50211;52.768;12.124;2022-10-16T01:51:09;15.10;99.90
64012;DHT22;50211;52.768;12.124;2022-10-16T01:53:36;15.00;99.90
64012;DHT22;50211;52.768;12.124;2022-10-16T01:56:04;14.90;99.90
64012;DHT22;50211;52.768;12.124;2022-10-16T01:58:37;14.90;99.90
64012;DHT22;50211;52.768;12.124;2022-10-16T02:01:04;14.90;99.90
64012;DHT22;50211;52.768;12.124;2022-10-16T02:03:31;14.80;99.90
64012;DHT22;50211;52.768;12.124;2022-10-16T02:05:58;14.80;99.90
64012;DHT22;50211;52.768;12.124;2022-10-16T02:08:27;14.80;99.90
64012;DHT22;50211;52.768;12.124;2022-10-16T02:10:55;14.70;99.90
64012;DHT22;50211;52.768;12.124;2022-10-16T02:13:39;14.70;99.90
64012;DHT22;50211;52.768;12.124;2022-10-16T02:16:07;14.60;99.90
64012;DHT22;50211;52.768;12.124;2022-10-16T02:18:33;14.60;99.90
64012;DHT22;50211;52.768;12.124;2022-10-16T02:21:04;14.60;99.90
64012;DHT22;50211;52.768;12.124;2022-10-16T02:26:28;14.50;99.90
64012;DHT22;50211;52.768;12.124;2022-10-16T02:29:01;14.40;99.90
64012;DHT22;50211;52.768;12.124;2022-10-16T02:31:32;14.40;99.90
64012;DHT22;50211;52.768;12.124;2022-10-16T02:34:00;14.30;99.90
64012;DHT22;50211;52.768;12.124;2022-10-16T02:36:28;14.20;99.90
64012;DHT22;50211;52.768;12.124;2022-10-16T02:38:54;14.20;99.90
64012;DHT22;50211;52.768;12.124;2022-10-16T02:41:21;14.20;99.90
64012;DHT22;50211;52.768;12.124;2022-10-16T02:43:47;14.20;99.90
64012;DHT22;50211;52.768;12.124;2022-10-16T02:46:12;14.20;99.90
64012;DHT22;50211;52.768;12.124;2022-10-16T02:48:38;14.20;99.90
64012;DHT22;50211;52.768;12.124;2022-10-16T02:51:04;14.20;99.90
64012;DHT22;50211;52.768;12.124;2022-10-16T02:53:30;14.10;99.90
64012;DHT22;50211;52.768;12.124;2022-10-16T02:55:56;14.10;99.90
64012;DHT22;50211;52.768;12.124;2022-10-16T02:58:21;14.10;99.90
64012;DHT22;50211;52.768;12.124;2022-10-16T03:00:47;14.00;99.90
64012;DHT22;50211;52.768;12.124;2022-10-16T03:03:13;14.00;99.90
64012;DHT22;50211;52.768;12.124;2022-10-16T03:05:38;14.00;99.90
64012;DHT22;50211;52.768;12.124;2022-10-16T03:08:04;14.00;99.90
64012;DHT22;50211;52.768;12.124;2022-10-16T03:10:31;13.90;99.90
64012;DHT22;50211;52.768;12.124;2022-10-16T03:12:56;13.90;99.90
64012;DHT22;50211;52.768;12.124;2022-10-16T03:15:22;13.90;99.90
64012;DHT22;50211;52.768;12.124;2022-10-16T03:17:47;13.90;99.90
64012;DHT22;50211;52.768;12.124;2022-10-16T03:20:13;13.80;99.90
64012;DHT22;50211;52.768;12.124;2022-10-16T03:22:38;13.80;99.90
64012;DHT22;50211;52.768;12.124;2022-10-16T03:25:04;13.80;99.90
64012;DHT22;50211;52.768;12.124;2022-10-16T03:27:30;13.90;99.90
64012;DHT22;50211;52.768;12.124;2022-10-16T03:29:55;13.90;99.90
64012;DHT22;50211;52.768;12.124;2022-10-16T03:32:21;13.90;99.90
64012;DHT22;50211;52.768;12.124;2022-10-16T03:34:46;13.70;99.90
64012;DHT22;50211;52.768;12.124;2022-10-16T03:37:12;13.90;99.90
64012;DHT22;50211;52.768;12.124;2022-10-16T03:39:38;13.80;99.90
64012;DHT22;50211;52.768;12.124;2022-10-16T03:42:03;13.90;99.90
64012;DHT22;50211;52.768;12.124;2022-10-16T03:44:28;13.80;99.90
64012;DHT22;50211;52.768;12.124;2022-10-16T03:46:54;13.90;99.90
64012;DHT22;50211;52.768;12.124;2022-10-16T03:49:19;13.90;99.90
64012;DHT22;50211;52.768;12.124;2022-10-16T03:51:45;13.90;99.90
64012;DHT22;50211;52.768;12.124;2022-10-16T03:54:10;13.90;99.90
64012;DHT22;50211;52.768;12.124;2022-10-16T03:56:36;13.90;99.90
64012;DHT22;50211;52.768;12.124;2022-10-16T03:59:01;13.90;99.90
64012;DHT22;50211;52.768;12.124;2022-10-16T04:01:27;13.80;99.90
64012;DHT22;50211;52.768;12.124;2022-10-16T04:03:52;13.80;99.90
64012;DHT22;50211;52.768;12.124;2022-10-16T04:06:18;13.80;99.90
64012;DHT22;50211;52.768;12.124;2022-10-16T04:08:44;13.80;99.90
64012;DHT22;50211;52.768;12.124;2022-10-16T04:11:09;13.80;99.90
64012;DHT22;50211;52.768;12.124;2022-10-16T04:13:35;13.70;99.90
64012;DHT22;50211;52.768;12.124;2022-10-16T04:16:00;13.70;99.90
64012;DHT22;50211;52.768;12.124;2022-10-16T04:18:26;13.70;99.90
64012;DHT22;50211;52.768;12.124;2022-10-16T04:20:53;13.70;99.90
64012;DHT22;50211;52.768;12.124;2022-10-16T04:23:18;13.70;99.90
64012;DHT22;50211;52.768;12.124;2022-10-16T04:25:43;13.80;99.90
64012;DHT22;50211;52.768;12.124;2022-10-16T04:28:09;13.80;99.90
64012;DHT22;50211;52.768;12.124;2022-10-16T04:30:34;13.90;99.90
64012;DHT22;50211;52.768;12.124;2022-10-16T04:33:00;13.90;99.90
64012;DHT22;50211;52.768;12.124;2022-10-16T04:35:25;13.80;99.90
64012;DHT22;50211;52.768;12.124;2022-10-16T04:37:51;13.90;99.90
64012;DHT22;50211;52.768;12.124;2022-10-16T04:40:17;13.90;99.90
64012;DHT22;50211;52.768;12.124;2022-10-16T04:42:42;13.90;99.90
64012;DHT22;50211;52.768;12.124;2022-10-16T04:45:08;13.90;99.90
64012;DHT22;50211;52.768;12.124;2022-10-16T04:47:34;13.90;99.90
64012;DHT22;50211;52.768;12.124;2022-10-16T04:49:59;13.80;99.90
64012;DHT22;50211;52.768;12.124;2022-10-16T04:52:26;13.80;99.90
64012;DHT22;50211;52.768;12.124;2022-10-16T04:54:51;13.80;99.90
64012;DHT22;50211;52.768;12.124;2022-10-16T04:57:17;13.80;99.90
64012;DHT22;50211;52.768;12.124;2022-10-16T04:59:43;13.80;99.90
64012;DHT22;50211;52.768;12.124;2022-10-16T05:02:08;13.80;99.90
64012;DHT22;50211;52.768;12.124;2022-10-16T05:04:34;13.80;99.90
64012;DHT22;50211;52.768;12.124;2022-10-16T05:06:59;13.80;99.90
64012;DHT22;50211;52.768;12.124;2022-10-16T05:09:25;13.80;99.90
64012;DHT22;50211;52.768;12.124;2022-10-16T05:11:50;13.80;99.90
64012;DHT22;50211;52.768;12.124;2022-10-16T05:14:16;13.90;99.90
64012;DHT22;50211;52.768;12.124;2022-10-16T05:16:41;13.90;99.90
64012;DHT22;50211;52.768;12.124;2022-10-16T05:19:07;13.80;99.90
64012;DHT22;50211;52.768;12.124;2022-10-16T05:21:32;13.90;99.90
64012;DHT22;50211;52.768;12.124;2022-10-16T05:23:58;13.90;99.90
64012;DHT22;50211;52.768;12.124;2022-10-16T05:26:23;13.80;99.90
64012;DHT22;50211;52.768;12.124;2022-10-16T05:28:49;13.90;99.90
64012;DHT22;50211;52.768;12.124;2022-10-16T05:31:15;13.90;99.90
64012;DHT22;50211;52.768;12.124;2022-10-16T05:33:40;13.80;99.90
64012;DHT22;50211;52.768;12.124;2022-10-16T05:36:08;13.80;99.90
64012;DHT22;50211;52.768;12.124;2022-10-16T05:38:35;13.80;99.90
64012;DHT22;50211;52.768;12.124;2022-10-16T05:41:00;13.70;99.90
64012;DHT22;50211;52.768;12.124;2022-10-16T05:43:27;13.70;99.90
64012;DHT22;50211;52.768;12.124;2022-10-16T05:45:58;13.70;99.90
64012;DHT22;50211;52.768;12.124;2022-10-16T05:48:24;13.70;99.90
64012;DHT22;50211;52.768;12.124;2022-10-16T05:50:57;13.60;99.90
64012;DHT22;50211;52.768;12.124;2022-10-16T05:53:22;13.60;99.90
64012;DHT22;50211;52.768;12.124;2022-10-16T05:55:54;13.60;99.90
64012;DHT22;50211;52.768;12.124;2022-10-16T05:58:21;13.50;99.90
64012;DHT22;50211;52.768;12.124;2022-10-16T06:00:59;13.50;99.90
64012;DHT22;50211;52.768;12.124;2022-10-16T06:03:25;13.50;99.90
64012;DHT22;50211;52.768;12.124;2022-10-16T06:05:51;13.40;99.90
64012;DHT22;50211;52.768;12.124;2022-10-16T06:08:18;13.40;99.90
64012;DHT22;50211;52.768;12.124;2022-10-16T06:10:44;13.40;99.90
64012;DHT22;50211;52.768;12.124;2022-10-16T06:13:11;13.40;99.90
64012;DHT22;50211;52.768;12.124;2022-10-16T06:15:37;13.50;99.90
64012;DHT22;50211;52.768;12.124;2022-10-16T06:18:04;13.50;99.90
64012;DHT22;50211;52.768;12.124;2022-10-16T06:20:30;13.50;99.90
64012;DHT22;50211;52.768;12.124;2022-10-16T06:22:55;13.60;99.90
64012;DHT22;50211;52.768;12.124;2022-10-16T06:25:22;13.60;99.90
64012;DHT22;50211;52.768;12.124;2022-10-16T06:27:47;13.60;99.90
64012;DHT22;50211;52.768;12.124;2022-10-16T06:30:13;13.70;99.90
64012;DHT22;50211;52.768;12.124;2022-10-16T06:32:38;13.70;99.90
64012;DHT22;50211;52.768;12.124;2022-10-16T06:35:04;13.70;99.90
64012;DHT22;50211;52.768;12.124;2022-10-16T06:37:29;13.70;99.90
64012;DHT22;50211;52.768;12.124;2022-10-16T06:39:55;13.70;99.90
64012;DHT22;50211;52.768;12.124;2022-10-16T06:42:21;13.80;99.90
64012;DHT22;50211;52.768;12.124;2022-10-16T06:44:47;13.80;99.90
64012;DHT22;50211;52.768;12.124;2022-10-16T06:47:12;13.80;99.90
64012;DHT22;50211;52.768;12.124;2022-10-16T06:49:37;13.80;99.90
64012;DHT22;50211;52.768;12.124;2022-10-16T06:52:03;13.90;99.90
64012;DHT22;50211;52.768;12.124;2022-10-16T06:54:29;13.90;99.90
64012;DHT22;50211;52.768;12.124;2022-10-16T06:56:55;13.90;99.90
64012;DHT22;50211;52.768;12.124;2022-10-16T06:59:23;13.90;99.90
64012;DHT22;50211;52.768;12.124;2022-10-16T07:01:48;14.00;99.90
64012;DHT22;50211;52.768;12.124;2022-10-16T07:04:14;14.00;99.90
64012;DHT22;50211;52.768;12.124;2022-10-16T07:06:40;14.00;99.90
64012;DHT22;50211;52.768;12.124;2022-10-16T07:09:08;14.10;99.90
64012;DHT22;50211;52.768;12.124;2022-10-16T07:11:34;14.10;99.90
64012;DHT22;50211;52.768;12.124;2022-10-16T07:14:00;14.20;99.90
64012;DHT22;50211;52.768;12.124;2022-10-16T07:16:28;14.20;99.90
64012;DHT22;50211;52.768;12.124;2022-10-16T07:18:58;14.30;99.90
64012;DHT22;50211;52.768;12.124;2022-10-16T07:21:25;14.30;99.90
64012;DHT22;50211;52.768;12.124;2022-10-16T07:23:52;14.40;99.90
64012;DHT22;50211;52.768;12.124;2022-10-16T07:26:18;14.40;99.90
64012;DHT22;50211;52.768;12.124;2022-10-16T07:28:44;14.50;99.90
64012;DHT22;50211;52.768;12.124;2022-10-16T07:31:11;14.50;99.90
64012;DHT22;50211;52.768;12.124;2022-10-16T07:33:39;14.60;99.90
64012;DHT22;50211;52.768;12.124;2022-10-16T07:36:05;14.70;99.90
64012;DHT22;50211;52.768;12.124;2022-10-16T07:38:30;14.80;99.90
64012;DHT22;50211;52.768;12.124;2022-10-16T07:41:01;14.90;99.90
64012;DHT22;50211;52.768;12.124;2022-10-16T07:43:27;15.00;99.90
64012;DHT22;50211;52.768;12.124;2022-10-16T07:45:53;15.30;99.90
64012;DHT22;50211;52.768;12.124;2022-10-16T07:48:20;15.40;99.90
64012;DHT22;50211;52.768;12.124;2022-10-16T07:50:45;15.40;99.90
64012;DHT22;50211;52.768;12.124;2022-10-16T07:53:12;15.50;99.90
64012;DHT22;50211;52.768;12.124;2022-10-16T07:55:37;15.50;99.90
64012;DHT22;50211;52.768;12.124;2022-10-16T07:58:03;15.80;99.90
64012;DHT22;50211;52.768;12.124;2022-10-16T08:00:29;16.40;99.90
64012;DHT22;50211;52.768;12.124;2022-10-16T08:02:56;17.00;99.90
64012;DHT22;50211;52.768;12.124;2022-10-16T08:05:21;17.10;99.90
64012;DHT22;50211;52.768;12.124;2022-10-16T08:07:50;17.20;99.90
64012;DHT22;50211;52.768;12.124;2022-10-16T08:10:17;17.10;99.90
64012;DHT22;50211;52.768;12.124;2022-10-16T08:12:43;17.40;99.90
64012;DHT22;50211;52.768;12.124;2022-10-16T08:15:09;17.60;99.90
64012;DHT22;50211;52.768;12.124;2022-10-16T08:17:34;17.70;99.90
64012;DHT22;50211;52.768;12.124;2022-10-16T08:20:00;17.70;99.90
64012;DHT22;50211;52.768;12.124;2022-10-16T08:22:25;18.00;99.90
64012;DHT22;50211;52.768;12.124;2022-10-16T08:24:51;18.30;99.90
64012;DHT22;50211;52.768;12.124;2022-10-16T08:27:16;18.50;99.90
64012;DHT22;50211;52.768;12.124;2022-10-16T08:29:42;18.80;99.90
64012;DHT22;50211;52.768;12.124;2022-10-16T08:32:07;18.90;99.90
64012;DHT22;50211;52.768;12.124;2022-10-16T08:34:33;19.20;99.90
64012;DHT22;50211;52.768;12.124;2022-10-16T08:36:59;19.60;99.90
64012;DHT22;50211;52.768;12.124;2022-10-16T08:39:24;19.70;99.90
64012;DHT22;50211;52.768;12.124;2022-10-16T08:42:30;19.80;99.90
64012;DHT22;50211;52.768;12.124;2022-10-16T08:47:48;19.90;99.90
64012;DHT22;50211;52.768;12.124;2022-10-16T08:50:22;19.60;99.90
64012;DHT22;50211;52.768;12.124;2022-10-16T08:52:49;19.80;99.90
64012;DHT22;50211;52.768;12.124;2022-10-16T08:55:37;20.10;99.90
64012;DHT22;50211;52.768;12.124;2022-10-16T08:58:29;20.20;99.90
64012;DHT22;50211;52.768;12.124;2022-10-16T09:00:58;20.20;99.90
64012;DHT22;50211;52.768;12.124;2022-10-16T09:03:33;20.50;99.90
64012;DHT22;50211;52.768;12.124;2022-10-16T09:17:37;20.30;99.90
64012;DHT22;50211;52.768;12.124;2022-10-16T09:22:36;19.90;99.90
64012;DHT22;50211;52.768;12.124;2022-10-16T09:25:14;19.70;99.90
64012;DHT22;50211;52.768;12.124;2022-10-16T09:27:40;19.70;99.90
64012;DHT22;50211;52.768;12.124;2022-10-16T09:30:14;19.60;99.90
64012;DHT22;50211;52.768;12.124;2022-10-16T09:32:42;19.50;99.90
64012;DHT22;50211;52.768;12.124;2022-10-16T09:35:18;19.30;99.90
64012;DHT22;50211;52.768;12.124;2022-10-16T09:37:48;19.00;99.90
64012;DHT22;50211;52.768;12.124;2022-10-16T09:40:28;18.80;99.90
64012;DHT22;50211;52.768;12.124;2022-10-16T09:43:10;18.60;99.90
64012;DHT22;50211;52.768;12.124;2022-10-16T09:45:37;18.40;99.90
64012;DHT22;50211;52.768;12.124;2022-10-16T09:48:11;18.40;99.90
64012;DHT22;50211;52.768;12.124;2022-10-16T09:50:36;18.40;99.90
64012;DHT22;50211;52.768;12.124;2022-10-16T09:53:08;18.30;99.90
64012;DHT22;50211;52.768;12.124;2022-10-16T09:55:35;18.30;99.90
64012;DHT22;50211;52.768;12.124;2022-10-16T09:58:01;18.30;99.90
64012;DHT22;50211;52.768;12.124;2022-10-16T10:00:26;18.20;99.90
64012;DHT22;50211;52.768;12.124;2022-10-16T10:02:53;18.30;99.90
64012;DHT22;50211;52.768;12.124;2022-10-16T10:05:24;18.40;99.90
64012;DHT22;50211;52.768;12.124;2022-10-16T10:08:01;18.40;99.90
64012;DHT22;50211;52.768;12.124;2022-10-16T10:10:33;18.50;99.90
64012;DHT22;50211;52.768;12.124;2022-10-16T10:12:59;18.80;99.90
64012;DHT22;50211;52.768;12.124;2022-10-16T10:15:28;18.90;99.90
64012;DHT22;50211;52.768;12.124;2022-10-16T10:17:56;19.00;99.90
64012;DHT22;50211;52.768;12.124;2022-10-16T10:20:34;18.90;99.90
64012;DHT22;50211;52.768;12.124;2022-10-16T10:23:01;18.80;99.90
64012;DHT22;50211;52.768;12.124;2022-10-16T10:25:35;18.90;99.90
64012;DHT22;50211;52.768;12.124;2022-10-16T10:31:29;18.80;99.90
64012;DHT22;50211;52.768;12.124;2022-10-16T10:37:28;18.80;99.90
64012;DHT22;50211;52.768;12.124;2022-10-16T10:41:01;18.90;99.90
64012;DHT22;50211;52.768;12.124;2022-10-16T10:43:14;18.80;99.90
64012;DHT22;50211;52.768;12.124;2022-10-16T10:45:46;18.90;99.90
64012;DHT22;50211;52.768;12.124;2022-10-16T10:51:15;19.20;99.90
64012;DHT22;50211;52.768;12.124;2022-10-16T10:54:04;19.30;99.90
64012;DHT22;50211;52.768;12.124;2022-10-16T10:56:51;19.40;99.90
64012;DHT22;50211;52.768;12.124;2022-10-16T10:59:50;19.60;99.90
64012;DHT22;50211;52.768;12.124;2022-10-16T11:02:41;19.40;99.90
64012;DHT22;50211;52.768;12.124;2022-10-16T11:05:25;19.50;99.90
64012;DHT22;50211;52.768;12.124;2022-10-16T11:07:57;19.60;99.90
64012;DHT22;50211;52.768;12.124;2022-10-16T11:10:44;19.60;99.90
64012;DHT22;50211;52.768;12.124;2022-10-16T11:13:29;19.50;99.90
64012;DHT22;50211;52.768;12.124;2022-10-16T11:15:59;19.50;99.90
64012;DHT22;50211;52.768;12.124;2022-10-16T11:18:46;19.50;99.90
64012;DHT22;50211;52.768;12.124;2022-10-16T11:21:16;19.50;99.90
64012;DHT22;50211;52.768;12.124;2022-10-16T11:23:55;19.60;99.90
64012;DHT22;50211;52.768;12.124;2022-10-16T11:26:27;19.80;99.90
64012;DHT22;50211;52.768;12.124;2022-10-16T11:28:55;19.90;99.90
64012;DHT22;50211;52.768;12.124;2022-10-16T11:31:40;20.00;99.90
64012;DHT22;50211;52.768;12.124;2022-10-16T11:37:02;19.60;99.90
64012;DHT22;50211;52.768;12.124;2022-10-16T11:39:31;19.50;99.90
64012;DHT22;50211;52.768;12.124;2022-10-16T11:42:10;19.60;99.90
64012;DHT22;50211;52.768;12.124;2022-10-16T11:47:48;19.30;99.90
64012;DHT22;50211;52.768;12.124;2022-10-16T11:56:00;19.10;99.90
64012;DHT22;50211;52.768;12.124;2022-10-16T11:58:45;19.10;99.90
64012;DHT22;50211;52.768;12.124;2022-10-16T12:01:22;19.10;99.90
64012;DHT22;50211;52.768;12.124;2022-10-16T12:06:36;19.20;99.90
64012;DHT22;50211;52.768;12.124;2022-10-16T12:09:03;19.20;99.90
64012;DHT22;50211;52.768;12.124;2022-10-16T12:16:55;19.00;99.90
64012;DHT22;50211;52.768;12.124;2022-10-16T12:19:22;18.90;99.90
64012;DHT22;50211;52.768;12.124;2022-10-16T12:21:50;18.90;99.90
64012;DHT22;50211;52.768;12.124;2022-10-16T12:26:59;18.90;99.90
64012;DHT22;50211;52.768;12.124;2022-10-16T12:29:41;19.00;99.90
64012;DHT22;50211;52.768;12.124;2022-10-16T12:34:56;18.90;99.90
64012;DHT22;50211;52.768;12.124;2022-10-16T12:37:28;18.80;99.90
64012;DHT22;50211;52.768;12.124;2022-10-16T12:39:56;18.70;99.90
64012;DHT22;50211;52.768;12.124;2022-10-16T12:42:32;18.60;99.90
64012;DHT22;50211;52.768;12.124;2022-10-16T12:44:59;18.60;99.90
64012;DHT22;50211;52.768;12.124;2022-10-16T12:49:56;18.60;99.90
64012;DHT22;50211;52.768;12.124;2022-10-16T12:54:56;18.90;99.90
64012;DHT22;50211;52.768;12.124;2022-10-16T12:57:58;19.00;99.90
64012;DHT22;50211;52.768;12.124;2022-10-16T13:00:32;19.10;99.90
64012;DHT22;50211;52.768;12.124;2022-10-16T13:06:19;19.20;99.90
64012;DHT22;50211;52.768;12.124;2022-10-16T13:14:34;19.50;99.90
64012;DHT22;50211;52.768;12.124;2022-10-16T13:22:14;19.80;99.90
64012;DHT22;50211;52.768;12.124;2022-10-16T13:27:54;19.60;99.90
64012;DHT22;50211;52.768;12.124;2022-10-16T13:30:29;19.60;99.90
64012;DHT22;50211;52.768;12.124;2022-10-16T13:33:07;19.60;99.90
64012;DHT22;50211;52.768;12.124;2022-10-16T13:35:34;19.70;99.90
64012;DHT22;50211;52.768;12.124;2022-10-16T13:38:13;19.70;99.90
64012;DHT22;50211;52.768;12.124;2022-10-16T13:40:50;19.80;99.90
64012;DHT22;50211;52.768;12.124;2022-10-16T13:43:22;19.70;99.90
64012;DHT22;50211;52.768;12.124;2022-10-16T13:45:56;19.80;99.90
64012;DHT22;50211;52.768;12.124;2022-10-16T13:48:22;19.90;99.90
64012;DHT22;50211;52.768;12.124;2022-10-16T13:51:02;19.90;99.90
64012;DHT22;50211;52.768;12.124;2022-10-16T13:53:30;20.00;99.90
64012;DHT22;50211;52.768;12.124;2022-10-16T13:55:56;20.20;99.90
64012;DHT22;50211;52.768;12.124;2022-10-16T13:58:22;20.40;99.90
64012;DHT22;50211;52.768;12.124;2022-10-16T14:00:58;20.90;99.90
64012;DHT22;50211;52.768;12.124;2022-10-16T14:03:25;21.50;99.90
64012;DHT22;50211;52.768;12.124;2022-10-16T14:05:56;21.70;99.90
64012;DHT22;50211;52.768;12.124;2022-10-16T14:08:24;21.80;99.90
64012;DHT22;50211;52.768;12.124;2022-10-16T14:10:52;21.70;99.90
64012;DHT22;50211;52.768;12.124;2022-10-16T14:13:23;22.00;99.90
64012;DHT22;50211;52.768;12.124;2022-10-16T14:15:51;22.00;99.90
64012;DHT22;50211;52.768;12.124;2022-10-16T14:18:23;22.00;99.90
64012;DHT22;50211;52.768;12.124;2022-10-16T14:20:50;21.60;99.90
64012;DHT22;50211;52.768;12.124;2022-10-16T14:23:22;21.40;99.90
64012;DHT22;50211;52.768;12.124;2022-10-16T14:25:48;20.60;99.90
64012;DHT22;50211;52.768;12.124;2022-10-16T14:28:21;20.20;99.90
64012;DHT22;50211;52.768;12.124;2022-10-16T14:30:55;19.90;99.90
64012;DHT22;50211;52.768;12.124;2022-10-16T14:38:34;19.30;99.90
64012;DHT22;50211;52.768;12.124;2022-10-16T14:41:01;19.20;99.90
64012;DHT22;50211;52.768;12.124;2022-10-16T14:43:33;19.00;99.90
64012;DHT22;50211;52.768;12.124;2022-10-16T14:46:00;18.90;99.90
64012;DHT22;50211;52.768;12.124;2022-10-16T14:48:26;18.90;99.90
64012;DHT22;50211;52.768;12.124;2022-10-16T14:50:53;18.90;99.90
64012;DHT22;50211;52.768;12.124;2022-10-16T14:53:18;18.80;99.90
64012;DHT22;50211;52.768;12.124;2022-10-16T14:55:44;18.80;99.90
64012;DHT22;50211;52.768;12.124;2022-10-16T14:58:16;18.90;99.90
64012;DHT22;50211;52.768;12.124;2022-10-16T15:00:42;18.80;99.90
64012;DHT22;50211;52.768;12.124;2022-10-16T15:03:08;18.80;99.90
64012;DHT22;50211;52.768;12.124;2022-10-16T15:05:33;18.70;99.90
64012;DHT22;50211;52.768;12.124;2022-10-16T15:07:59;18.60;99.90
64012;DHT22;50211;52.768;12.124;2022-10-16T15:10:27;18.60;99.90
64012;DHT22;50211;52.768;12.124;2022-10-16T15:12:53;18.60;99.90
64012;DHT22;50211;52.768;12.124;2022-10-16T15:15:40;18.50;99.90
64012;DHT22;50211;52.768;12.124;2022-10-16T15:18:07;18.50;99.90
64012;DHT22;50211;52.768;12.124;2022-10-16T15:20:34;18.50;99.90
64012;DHT22;50211;52.768;12.124;2022-10-16T15:23:06;18.40;99.90
64012;DHT22;50211;52.768;12.124;2022-10-16T15:25:41;18.50;99.90
64012;DHT22;50211;52.768;12.124;2022-10-16T15:28:07;18.40;99.90
64012;DHT22;50211;52.768;12.124;2022-10-16T15:30:33;18.50;99.90
64012;DHT22;50211;52.768;12.124;2022-10-16T15:32:59;18.40;99.90
64012;DHT22;50211;52.768;12.124;2022-10-16T15:35:25;18.40;99.90
64012;DHT22;50211;52.768;12.124;2022-10-16T15:37:50;18.40;99.90
64012;DHT22;50211;52.768;12.124;2022-10-16T15:40:18;18.40;99.90
64012;DHT22;50211;52.768;12.124;2022-10-16T15:42:43;18.30;99.90
64012;DHT22;50211;52.768;12.124;2022-10-16T15:45:10;18.20;99.90
64012;DHT22;50211;52.768;12.124;2022-10-16T15:47:35;18.00;99.90
64012;DHT22;50211;52.768;12.124;2022-10-16T15:50:01;17.90;99.90
64012;DHT22;50211;52.768;12.124;2022-10-16T15:52:27;17.80;99.90
64012;DHT22;50211;52.768;12.124;2022-10-16T15:54:54;17.70;99.90
64012;DHT22;50211;52.768;12.124;2022-10-16T15:57:19;17.50;99.90
64012;DHT22;50211;52.768;12.124;2022-10-16T15:59:45;17.40;99.90
64012;DHT22;50211;52.768;12.124;2022-10-16T16:02:10;17.30;99.90
64012;DHT22;50211;52.768;12.124;2022-10-16T16:04:36;17.30;99.90
64012;DHT22;50211;52.768;12.124;2022-10-16T16:07:01;17.10;99.90
64012;DHT22;50211;52.768;12.124;2022-10-16T16:09:29;17.00;99.90
64012;DHT22;50211;52.768;12.124;2022-10-16T16:11:54;16.90;99.90
64012;DHT22;50211;52.768;12.124;2022-10-16T16:14:20;16.80;99.90
64012;DHT22;50211;52.768;12.124;2022-10-16T16:16:46;16.70;99.90
64012;DHT22;50211;52.768;12.124;2022-10-16T16:19:11;16.60;99.90
64012;DHT22;50211;52.768;12.124;2022-10-16T16:21:37;16.50;99.90
64012;DHT22;50211;52.768;12.124;2022-10-16T16:24:03;16.50;99.90
64012;DHT22;50211;52.768;12.124;2022-10-16T16:26:34;16.40;99.90
64012;DHT22;50211;52.768;12.124;2022-10-16T16:29:03;16.30;99.90
64012;DHT22;50211;52.768;12.124;2022-10-16T16:31:30;16.20;99.90
64012;DHT22;50211;52.768;12.124;2022-10-16T16:33:57;16.20;99.90
64012;DHT22;50211;52.768;12.124;2022-10-16T16:36:24;16.10;99.90
64012;DHT22;50211;52.768;12.124;2022-10-16T16:38:49;16.10;99.90
64012;DHT22;50211;52.768;12.124;2022-10-16T16:41:22;16.00;99.90
64012;DHT22;50211;52.768;12.124;2022-10-16T16:43:48;15.90;99.90
64012;DHT22;50211;52.768;12.124;2022-10-16T16:46:16;15.80;99.90
64012;DHT22;50211;52.768;12.124;2022-10-16T16:48:42;15.80;99.90
64012;DHT22;50211;52.768;12.124;2022-10-16T16:51:10;15.70;99.90